• Join FlightAware (Why Join?)
  • Login
  • US Flag GB Flag 
04:54 EDT


 

Airport Tracker/Info


-or-


 

Live Flight TrackerFlight Track Log ✈ ATN510 ✈ 09-May-2013 ✈ KBWI - BGTL / THU

Flight Track Log - Related Links

Times and Time Zones

All times are in EDT time to prevent confusion due to time zone crossing. See the ATN510 flight status page for this flight to view local times or setup timezone preferences in your user account.

Time Position Orientation Groundspeed Altitude Reporting Facility
EDT Latitude Longitude Course Direction KTS MPH feet Rate Location/Type
03:28 39.1667 -76.6167 120° Southeast 178 205 1,300  Level Potomac TRACON
03:30 39.1019 -76.4717 120° Southeast 214 246 5,000 1,680 Climbing Washington Center
03:31 39.0461 -76.4042 137° Southeast 248 285 7,000 2,220 Climbing Washington Center
03:32 39.0239 -76.3078 107° East 261 300 9,400 1,920 Climbing Washington Center
03:33 39.0328 -76.1981 84° East 266 306 10,900 1,440 Climbing Washington Center
03:34 39.0519 -76.0728 79° East 307 353 12,300 1,440 Climbing Washington Center
03:35 39.1192 -75.9769 48° Northeast 323 372 13,800 1,440 Climbing Washington Center
03:36 39.1922 -75.8728 48° Northeast 358 412 15,200 1,500 Climbing Washington Center
03:37 39.2778 -75.7792 40° Northeast 374 430 16,900 1,680 Climbing Washington Center
03:38 39.3883 -75.7367 17° North 387 445 18,700 1,740 Climbing Washington Center
03:39 39.4969 -75.7019 14° North 392 451 20,400 1,440 Climbing Washington Center
03:40 39.6053 -75.6642 15° North 397 457 21,600 1,080 Climbing Washington Center
03:42 39.7800 -75.4711 40° Northeast 405 466 23,900 1,080 Climbing New York Center
03:43 39.8736 -75.3178 51° Northeast 405 466 25,100 1,080 Climbing New York Center
03:44 39.9753 -75.2269 34° Northeast 411 473 26,100 840 Climbing New York Center
03:45 40.0786 -75.1331 35° Northeast 427 491 26,900 660 Climbing New York Center
03:46 40.1803 -75.0361 36° Northeast 440 506 27,500 600 Climbing New York Center
03:47 40.2878 -74.9422 34° Northeast 453 521 28,200 660 Climbing New York Center
03:48 40.3956 -74.8397 36° Northeast 464 534 28,900 660 Climbing New York Center
03:49 40.5053 -74.7397 35° Northeast 469 540 29,600 600 Climbing New York Center
03:50 40.6172 -74.6314 36° Northeast 482 555 30,200 600 Climbing New York Center
03:51 40.7311 -74.5283 34° Northeast 493 567 30,900 660 Climbing New York Center
03:53 40.8958 -74.3758 35° Northeast 492 566 32,000 780 Climbing Boston Center
03:54 41.0081 -74.2719 35° Northeast 492 566 33,000 480 Climbing Boston Center
03:55 41.1286 -74.1542 36° Northeast 492 566 33,000  Level Boston Center
03:56 41.2617 -74.0306 35° Northeast 487 560 33,000  Level Boston Center
03:57 41.3928 -73.9011 37° Northeast 487 560 33,000  Level Boston Center
03:58 41.5044 -73.7956 35° Northeast 487 560 33,000  Level Boston Center
04:00 41.6372 -73.6678 36° Northeast 482 555 33,000  Level Boston Center
04:01 41.7678 -73.5394 36° Northeast 482 555 33,000  Level Boston Center
04:02 41.8814 -73.4300 36° Northeast 487 560 33,000  Level Boston Center
04:03 41.9928 -73.3200 36° Northeast 487 560 33,000  Level Boston Center
04:04 42.1019 -73.2125 36° Northeast 487 560 33,000  Level Boston Center
04:05 42.2150 -73.1017 36° Northeast 487 560 33,000  Level Boston Center
04:06 42.3242 -72.9906 37° Northeast 487 560 33,000  Level Boston Center
04:07 42.4369 -72.8761 37° Northeast 493 567 33,000  Level Boston Center
04:08 42.5458 -72.7614 38° Northeast 487 560 33,000  Level Boston Center
04:09 42.6544 -72.6517 37° Northeast 487 560 33,000  Level Boston Center
04:10 42.7589 -72.5617 32° Northeast 487 560 33,000  Level Boston Center
04:11 42.8672 -72.4514 37° Northeast 487 560 33,000  Level Boston Center
04:12 42.9756 -72.3381 37° Northeast 487 560 33,000  Level Boston Center
04:13 43.0775 -72.2269 39° Northeast 480 552 33,000  Level Boston Center
04:14 43.1856 -72.1156 37° Northeast 480 552 33,000  Level Boston Center
04:15 43.2936 -72.0036 37° Northeast 480 552 33,000  Level Boston Center
04:16 43.3994 -71.8942 37° Northeast 481 554 33,000  Level Boston Center
04:17 43.5072 -71.7789 38° Northeast 481 554 33,000  Level Boston Center
04:18 43.6147 -71.6658 37° Northeast 486 559 33,000  Level Boston Center
04:19 43.7244 -71.5553 36° Northeast 486 559 33,000  Level Boston Center
04:20 43.8381 -71.4297 39° Northeast 481 554 33,000  Level Boston Center
04:21 43.9308 -71.3303 38° Northeast 481 554 33,000  Level Boston Center
04:22 44.0381 -71.2186 37° Northeast 481 554 33,000  Level Boston Center
04:23 44.1453 -71.1036 38° Northeast 481 554 33,000  Level Boston Center
04:24 44.2542 -70.9881 37° Northeast 481 554 33,000  Level Boston Center
04:25 44.3825 -70.9122 23° Northeast 481 554 33,000  Level Boston Center
04:26 44.5086 -70.8419 22° Northeast 486 559 33,000  Level Boston Center
04:27 44.6367 -70.7686 22° Northeast 491 565 33,000  Level Boston Center
04:28 44.7669 -70.6975 21° North 491 565 33,000  Level Boston Center
04:29 44.8950 -70.6175 24° Northeast 491 565 33,000  Level Boston Center
04:30 45.0228 -70.5458 22° Northeast 491 565 33,000  Level Boston Center
04:31 45.1508 -70.4711 22° Northeast 491 565 33,000  Level Boston Center
04:32 45.2911 -70.3897 22° Northeast 491 565 33,000  Level Boston Center
04:33 45.4189 -70.3142 23° Northeast 491 565 33,000  Level Boston Center
04:34 45.5506 -70.2353 23° Northeast 491 565 33,000  Level Boston Center
04:35 45.6761 -70.1592 23° Northeast 491 565 33,000  Level Boston Center
04:36 45.8058 -70.0825 22° Northeast 496 571 33,000  Level Boston Center
04:37 45.9356 -70.0056 22° Northeast 496 571 33,000  Level Boston Center
04:38 46.0631 -69.9253 24° Northeast 496 571 33,000  Level Boston Center
04:39 46.1883 -69.8447 24° Northeast 490 564 33,000  Level Boston Center
04:40 46.3197 -69.7667 22° Northeast 496 571 33,000  Level Boston Center
04:41 46.4489 -69.6850 24° Northeast 496 571 33,000  Level Boston Center
04:42 46.5783 -69.6061 23° Northeast 496 571 33,000  Level Boston Center
04:43 46.7053 -69.5242 24° Northeast 496 571 33,000  Level Boston Center
04:44 46.8222 -69.4544 22° Northeast 496 571 33,000  Level Boston Center
04:45 46.9492 -69.3744 23° Northeast 496 571 33,000  Level Boston Center
04:46 47.0761 -69.2944 23° Northeast 496 571 33,000  Level Boston Center
04:47 47.2050 -69.2106 24° Northeast 496 571 33,000  Level Boston Center
04:48 47.3333 -69.0667 37° Northeast 490 564 33,000  Level Montreal Center
04:49 47.4667 -69.0000 19° North 500 575 33,000  Level Montreal Center
04:50 47.6000 -68.9167 23° Northeast 500 575 33,000  Level Montreal Center
04:51 47.7333 -68.8500 19° North 500 575 33,000  Level Montreal Center
04:52 47.8333 -68.7500 34° Northeast 500 575 33,000  Level Montreal Center
04:53 47.9667 -68.6667 23° Northeast 500 575 33,000  Level Montreal Center
04:54 48.1000 -68.5833 23° Northeast 500 575 33,000  Level Montreal Center
04:55 48.2333 -68.5000 23° Northeast 500 575 33,000  Level Montreal Center
04:56 48.3500 -68.4167 25° Northeast 500 575 33,000  Level Montreal Center
04:57 48.4833 -68.3333 22° Northeast 500 575 33,000  Level Montreal Center
04:58 48.6167 -68.2333 26° Northeast 500 575 33,000  Level Montreal Center
04:59 48.7167 -68.1667 24° Northeast 500 575 33,000  Level Montreal Center
05:00 48.8667 -68.0667 24° Northeast 500 575 33,000  Level Montreal Center
05:01 48.9833 -67.9833 25° Northeast 500 575 33,000  Level Montreal Center
05:02 49.1333 -67.8833 24° Northeast 500 575 33,000  Level Montreal Center
05:03 49.2333 -67.8000 29° Northeast 500 575 33,000  Level Montreal Center
05:04 49.3667 -67.7167 22° Northeast 500 575 33,000  Level Montreal Center
05:05 49.5000 -67.6167 26° Northeast 500 575 33,000  Level Montreal Center
05:06 49.6167 -67.5500 20° North 500 575 33,000  Level Montreal Center
05:07 49.7500 -67.4333 29° Northeast 500 575 33,000  Level Montreal Center
05:08 49.8833 -67.3333 26° Northeast 500 575 33,000  Level Montreal Center
05:08 49.9500 -67.3333 360° North 500 575 33,000  Level Moncton Center
05:09 50.0833 -67.2333 26° Northeast 500 575 33,000  Level Moncton Center
05:10 50.1333 -67.1667 41° Northeast 500 575 33,000  Level Montreal Center
05:11 50.2500 -67.0833 25° Northeast 500 575 33,000  Level Montreal Center
05:11 50.3333 -67.0500 14° North 500 575 33,000  Level Moncton Center
05:12 50.4000 -66.9833 33° Northeast 500 575 33,000  Level Montreal Center
05:13 50.5000 -66.8833 32° Northeast 500 575 33,000  Level Montreal Center
05:13 50.5833 -66.8667 North 500 575 33,000  Level Gander Center
05:14 50.6500 -66.8000 32° Northeast 500 575 33,000  Level Montreal Center
05:15 50.7667 -66.6833 32° Northeast 500 575 33,000  Level Montreal Center
05:16 50.8833 -66.6167 20° North 500 575 33,000  Level Montreal Center
05:17 51.0167 -66.5000 29° Northeast 500 575 33,000  Level Montreal Center
05:18 51.1333 -66.4000 28° Northeast 500 575 33,000  Level Montreal Center
05:19 51.2833 -66.3167 19° North 500 575 33,000  Level Montreal Center
05:20 51.4000 -66.2333 24° Northeast 500 575 33,000  Level Montreal Center
05:21 51.5500 -66.1500 19° North 500 575 33,000  Level Montreal Center
05:22 51.6667 -66.0833 20° North 500 575 33,000  Level Montreal Center
05:23 51.8000 -66.0333 13° North 500 575 33,000  Level Montreal Center
05:24 51.9333 -65.9833 13° North 500 575 33,000 120 Level Montreal Center
05:25 52.0667 -65.9167 17° North 500 575 33,300 660 Climbing Montreal Center
05:26 52.2167 -65.8500 15° North 500 575 34,400 960 Climbing Montreal Center
05:26 52.2833 -65.8500 360° North 490 564 34,900 360 Climbing Gander Center
05:27 52.4167 -65.8000 13° North 490 564 35,000  Climbing Gander Center
05:28 52.5500 -65.7333 17° North 490 564 35,000  Level Gander Center
05:29 52.6833 -65.6667 17° North 490 564 35,000  Level Gander Center
05:30 52.8167 -65.6333 North 490 564 35,000  Level Gander Center
05:31 52.9500 -65.5500 21° North 490 564 35,000  Level Gander Center
05:32 53.0667 -65.4833 19° North 490 564 35,000  Level Gander Center
05:33 53.2167 -65.4167 15° North 490 564 35,000  Level Gander Center
05:34 53.2500 -65.3500 50° Northeast 500 575 35,000  Level Montreal Center
05:35 53.3833 -65.3000 13° North 490 564 35,000  Level Montreal Center
05:35 53.4667 -65.3000 360° North 490 564 35,000  Level Gander Center
05:36 53.6000 -65.2333 17° North 490 564 35,000  Level Gander Center
05:37 53.7167 -65.1500 23° Northeast 490 564 35,000  Level Gander Center
05:38 53.7667 -65.1000 31° Northeast 490 564 35,000  Level Montreal Center
05:39 53.9000 -65.0167 20° North 490 564 35,000  Level Montreal Center
05:39 53.9833 -65.0333 353° North 500 575 35,000  Level Gander Center
05:40 54.1333 -64.9667 15° North 500 575 35,000  Level Gander Center
05:41 54.2667 -64.8833 20° North 500 575 35,000  Level Gander Center
05:42 54.3833 -64.8167 18° North 500 575 35,000  Level Gander Center
05:43 54.5333 -64.7667 11° North 500 575 35,000  Level Gander Center
05:44 54.6500 -64.6833 22° Northeast 500 575 35,000  Level Gander Center
05:45 54.7833 -64.6167 16° North 500 575 35,000  Level Gander Center
05:46 54.9167 -64.5333 20° North 500 575 35,000  Level Gander Center
05:47 55.0667 -64.4667 14° North 510 587 35,000  Level Gander Center
05:48 55.2000 -64.3833 20° North 510 587 35,000  Level Gander Center
05:49 55.3500 -64.3167 14° North 510 587 35,000  Level Gander Center
05:50 55.4000 -64.2500 37° Northeast 510 587 35,000  Level Montreal Center
05:51 55.5167 -64.1833 18° North 510 587 35,000  Level Montreal Center
05:52 55.6500 -64.1000 19° North 510 587 35,000  Level Montreal Center
05:53 55.8000 -64.0000 21° North 510 587 35,000  Level Montreal Center
05:54 55.9167 -63.9333 18° North 500 575 35,000  Level Montreal Center
05:54 56.0000 -63.9333 360° North 520 598 35,000  Level Gander Center
05:55 56.1500 -63.8667 14° North 520 598 35,000  Level Gander Center
05:56 56.2833 -63.7833 19° North 510 587 35,000  Level Gander Center
05:57 56.4167 -63.7333 12° North 500 575 35,000  Level Gander Center
05:58 56.5500 -63.6500 19° North 510 587 35,000  Level Gander Center
05:59 56.6000 -63.5667 43° Northeast 510 587 35,000  Level Montreal Center
06:00 56.7500 -63.4833 17° North 500 575 35,000  Level Montreal Center
06:01 56.8667 -63.3833 25° Northeast 500 575 35,000  Level Montreal Center
06:01 56.9500 -63.4000 354° North 500 575 35,000  Level Gander Center
06:02 57.0833 -63.3167 19° North 510 587 35,000  Level Gander Center
06:03 57.2167 -63.2167 22° Northeast 510 587 35,000  Level Gander Center
06:04 57.3500 -63.1667 11° North 510 587 35,000  Level Gander Center
06:05 57.4833 -63.0833 19° North 500 575 35,000 -60 Level Gander Center
06:06 57.6167 -63.0000 19° North 500 575 34,900  Descending Gander Center
06:07 57.6833 -62.9167 34° Northeast 490 564 35,000 60 Climbing Montreal Center
06:08 57.7833 -62.8333 24° Northeast 490 564 35,000  Level Montreal Center
06:08 57.8833 -62.8500 355° North 490 564 35,000  Level Gander Center
06:09 57.9333 -62.7500 47° Northeast 490 564 35,000  Level Montreal Center
06:10 58.0667 -62.6833 15° North 500 575 35,000  Level Montreal Center
06:10 58.1500 -62.6667 North 510 587 35,000  Level Gander Center
06:11 58.2667 -62.5833 21° North 500 575 35,000  Level Gander Center
06:12 58.4167 -62.4833 19° North 490 564 35,000  Level Gander Center
06:13 58.5333 -62.4000 20° North 500 575 35,000  Level Gander Center
06:14 58.6667 -62.3333 15° North 490 564 35,000 -60 Level Gander Center
06:15 58.8000 -62.2500 18° North 490 564 34,900  Descending Gander Center
06:16 58.9167 -62.1500 24° Northeast 490 564 35,000  Climbing Gander Center
06:17 59.0500 -62.0833 14° North 490 564 35,000 -60 Level Gander Center
06:18 59.1833 -62.0000 18° North 490 564 34,900  Descending Gander Center
06:19 59.3000 -61.9000 24° Northeast 480 552 35,000  Climbing Gander Center
06:20 59.4333 -61.8333 14° North 480 552 35,000  Level Gander Center
06:21 59.5500 -61.7500 20° North 490 564 35,000  Level Gander Center
06:22 59.7000 -61.6500 19° North 510 587 35,000  Level Gander Center
06:23 59.8167 -61.5833 16° North 490 564 35,000  Level Gander Center
06:24 59.9333 -61.5167 16° North 500 575 35,000  Level Gander Center
06:25 60.0667 -61.4500 14° North 490 564 35,000  Level Gander Center
06:26 60.2000 -61.3833 14° North 500 575 35,000  Level Gander Center
06:27 60.3333 -61.3500 North 500 575 35,000  Level Gander Center
06:28 60.4833 -61.2833 12° North 500 575 35,000  Level Gander Center
06:29 60.6167 -61.2167 14° North 500 575 35,000  Level Gander Center
06:30 60.6667 -61.1500 33° Northeast 500 575 35,000  Level Montreal Center
06:31 60.8000 -61.0500 20° North 500 575 35,000  Level Montreal Center
06:31 60.8833 -61.1167 339° North 500 575 35,000  Level Gander Center
06:32 61.0167 -61.0500 14° North 500 575 35,000  Level Gander Center
06:33 61.1500 -60.9667 17° North 500 575 35,000  Level Gander Center
06:34 61.2833 -60.9000 14° North 500 575 35,000  Level Gander Center
06:35 61.4333 -60.8667 North 500 575 35,000  Level Gander Center
06:36 61.4833 -60.7667 44° Northeast 500 575 35,000  Level Montreal Center
06:37 61.6167 -60.7000 13° North 500 575 35,000  Level Montreal Center
06:38 61.7500 -60.6333 13° North 500 575 35,000  Level Montreal Center
06:39 61.8667 -60.5667 15° North 500 575 35,000  Level Montreal Center
06:39 61.9667 -60.6167 347° North 490 564 35,000  Level Gander Center
06:40 62.0167 -60.5000 48° Northeast 490 564 35,000  Level Montreal Center
06:41 62.1500 -60.4333 13° North 500 575 35,000  Level Montreal Center
06:41 62.2333 -60.4667 349° North 500 575 35,000  Level Gander Center
06:42 62.3667 -60.4167 10° North 500 575 35,000  Level Gander Center
06:43 62.4167 -60.3000 47° Northeast 500 575 35,000  Level Montreal Center
06:44 62.5500 -60.2667 North 500 575 35,000  Level Montreal Center
06:45 62.6833 -60.2000 13° North 500 575 35,000  Level Montreal Center
06:46 62.8167 -60.1333 13° North 500 575 35,000  Level Montreal Center
06:47 62.9500 -60.0500 16° North 500 575 35,000  Level Montreal Center
06:47 63.0333 -60.0833 350° North 500 575 35,000  Level Gander Center
06:48 63.1667 -60.0000 16° North 500 575 35,000  Level Gander Center
06:49 63.3167 -59.9167 14° North 500 575 35,000  Level Gander Center
06:50 63.4500 -59.8833 North 500 575 35,000  Level Gander Center
06:51 63.5833 -59.8000 16° North 500 575 35,000  Level Gander Center
06:52 63.7000 -59.7167 18° North 500 575 35,000  Level Gander Center
06:53 63.8333 -59.6333 15° North 500 575 35,000  Level Gander Center
06:54 63.9667 -59.5500 15° North 500 575 35,000  Level Gander Center
06:55 64.1000 -59.5000 North 500 575 35,000  Level Gander Center
06:56 64.2333 -59.4167 15° North 500 575 35,000  Level Gander Center
06:57 64.3667 -59.3333 15° North 500 575 35,000  Level Gander Center
06:58 64.5000 -59.2500 15° North 500 575 35,000  Level Gander Center
06:59 64.6500 -59.2000 North 500 575 35,000  Level Gander Center
07:00 64.7667 -59.1167 17° North 510 587 35,000  Level Gander Center
07:01 64.9000 -59.0333 15° North 510 587 35,000  Level Gander Center
07:02 65.0667 -58.9333 14° North 510 587 35,000  Level Gander Center
07:03 65.0000 -59.0000 North 492 566 35,000  Level ETMS Enhanced Traffic Management System
07:03 65.0833 -58.8667 59° Northeast 500 575 35,000  Level Montreal Center
07:03 65.2000 -58.9167 North 510 587 35,000  Level Gander Center
07:04 65.2167 -58.8167 68° East 510 587 35,000  Level Montreal Center
07:05 65.3667 -58.7667 North 500 575 35,000  Level Montreal Center
07:05 65.4833 -58.8167 350° North 510 587 35,000  Level Gander Center
07:06 65.6167 -58.7667 North 510 587 35,000  Level Gander Center
07:07 65.6333 -58.6833 64° Northeast 500 575 35,000  Level Montreal Center
07:07 65.7333 -58.7167 352° North 500 575 35,000  Level Gander Center
07:08 65.7833 -58.6167 39° Northeast 510 587 35,000  Level Montreal Center
07:08 65.8667 -58.6667 346° North 510 587 35,000  Level Gander Center
07:09 66.0167 -58.6167 North 500 575 35,000  Level Gander Center
07:10 66.1500 -58.6000 North 500 575 35,000  Level Gander Center
07:11 66.2833 -58.5500 North 500 575 35,000  Level Gander Center
07:12 66.4333 -58.4833 10° North 510 587 35,000  Level Gander Center
07:13 66.4500 -58.3333 74° East 490 564 35,000  Level Montreal Center
07:13 66.5500 -58.4333 338° Northwest 500 575 35,000  Level Gander Center
07:14 66.5833 -58.3333 50° Northeast 510 587 35,000  Level Montreal Center
07:15 66.7167 -58.2333 17° North 510 587 35,000  Level Montreal Center
07:15 66.8333 -58.3167 344° North 500 575 35,000  Level Gander Center
07:16 66.9667 -58.3000 North 510 587 35,000  Level Gander Center
07:17 67.1000 -58.2500 North 510 587 35,000  Level Gander Center
07:18 67.2500 -58.1833 10° North 510 587 35,000  Level Gander Center
07:19 67.3667 -58.1333 North 510 587 35,000  Level Gander Center
07:20 67.5167 -58.0667 10° North 510 587 35,000  Level Gander Center
07:21 67.6500 -58.0000 11° North 510 587 35,000  Level Gander Center
07:22 67.8000 -57.9500 North 510 587 35,000  Level Gander Center
07:23 67.9333 -57.8833 11° North 520 598 35,000  Level Gander Center
07:24 68.0667 -57.8167 11° North 510 587 35,000  Level Gander Center
07:25 68.2000 -57.7500 11° North 510 587 35,000  Level Gander Center
07:26 68.3333 -57.7333 North 510 587 35,000  Level Gander Center
07:27 68.4833 -57.6667 North 510 587 35,000  Level Gander Center
07:28 68.6167 -57.6000 10° North 510 587 35,000  Level Gander Center
07:29 68.7500 -57.5333 10° North 510 587 35,000  Level Gander Center
07:30 68.8833 -57.4667 10° North 500 575 35,000  Level Gander Center
07:31 69.0167 -57.4500 North 500 575 35,000  Level Gander Center
07:32 69.1667 -57.3833 North 510 587 35,000  Level Gander Center
07:33 69.2833 -57.3167 11° North 510 587 35,000  Level Gander Center
07:34 69.4167 -57.2333 12° North 510 587 35,000  Level Gander Center
07:35 69.5833 -57.1667 North 510 587 35,000  Level Gander Center
07:36 69.7333 -57.0500 15° North 510 587 35,000  Level Gander Center
07:37 69.8500 -57.0167 North 510 587 35,000  Level Gander Center
07:38 70.0000 -56.9500 North 510 587 35,000  Level Gander Center
07:39 70.1333 -56.8667 12° North 510 587 35,000  Level Gander Center
07:40 70.2833 -56.8500 North 510 587 35,000  Level Gander Center
07:41 70.4000 -56.8667 357° North 510 587 35,000  Level Gander Center
07:42 70.5500 -56.7833 10° North 510 587 35,000  Level Gander Center
07:44 70.7176 -56.8636 351° North  Level FlightAware Approximate
07:51 71.6311 -57.3260 351° North  Level FlightAware Approximate
07:52 71.7615 -57.3957 351° North  Level FlightAware Approximate
07:53 71.8919 -57.4663 350° North  Level FlightAware Approximate
07:54 72.0222 -57.5380 350° North  Level FlightAware Approximate
07:55 72.1525 -57.6107 350° North  Level FlightAware Approximate
07:56 72.2829 -57.6844 350° North  Level FlightAware Approximate
07:57 72.4131 -57.7591 350° North  Level FlightAware Approximate
07:58 72.5434 -57.8350 350° North  Level FlightAware Approximate
07:59 72.6736 -57.9119 350° North  Level FlightAware Approximate
08:00 72.8037 -57.9900 350° North  Level FlightAware Approximate
08:01 72.9339 -58.0692 350° North  Level FlightAware Approximate
08:02 73.0640 -58.1497 350° North  Level FlightAware Approximate
08:03 73.1941 -58.2313 350° North  Level FlightAware Approximate
08:04 73.3242 -58.3141 350° North  Level FlightAware Approximate
08:05 73.4542 -58.3983 350° North  Level FlightAware Approximate
08:06 73.5842 -58.4837 349° North  Level FlightAware Approximate
08:07 73.7141 -58.5704 349° North  Level FlightAware Approximate
08:08 73.8252 -58.8378 322° Northwest  Level FlightAware Approximate
08:09 73.9294 -59.1310 322° Northwest  Level FlightAware Approximate
08:10 74.0332 -59.4278 322° Northwest  Level FlightAware Approximate
08:11 74.1366 -59.7284 322° Northwest  Level FlightAware Approximate
08:12 74.2396 -60.0329 321° Northwest  Level FlightAware Approximate
08:13 74.3421 -60.3413 321° Northwest  Level FlightAware Approximate
08:14 74.4442 -60.6536 321° Northwest  Level FlightAware Approximate
08:15 74.5459 -60.9699 320° Northwest  Level FlightAware Approximate
08:16 74.6471 -61.2903 320° Northwest  Level FlightAware Approximate
08:17 74.7478 -61.6148 320° Northwest  Level FlightAware Approximate
08:18 74.8481 -61.9436 319° Northwest  Level FlightAware Approximate
08:19 74.9485 -62.2738 320° Northwest  Level FlightAware Approximate
08:20 75.0484 -62.6083 319° Northwest  Level FlightAware Approximate
08:21 75.1463 -62.9540 317° Northwest  Level FlightAware Approximate
08:22 75.2433 -63.3052 320° Northwest  Level FlightAware Approximate
08:23 75.3436 -63.6447 319° Northwest  Level FlightAware Approximate
08:24 75.4372 -64.0149 315° West  Level FlightAware Approximate
08:25 75.5300 -64.3905 315° West  Level FlightAware Approximate
08:26 75.6223 -64.7707 314° West  Level FlightAware Approximate
08:27 75.7158 -65.1487 315° West  Level FlightAware Approximate
08:28 75.8088 -65.5305 315° West  Level FlightAware Approximate
08:29 75.9013 -65.9172 315° West  Level FlightAware Approximate
08:30 75.9932 -66.3086 314° West  Level FlightAware Approximate
08:31 76.0852 -66.7025 314° West  Level FlightAware Approximate
08:32 76.1772 -67.0986 314° West  Level FlightAware Approximate
08:33 76.2679 -67.5025 311° West  Level FlightAware Approximate
08:34 76.3567 -67.9134 335° Northwest  Level FlightAware Approximate
08:35 76.4466 -68.3192 317° Northwest  Level FlightAware Approximate
08:36 76.5167 -68.7000 302° West  Level FlightAware Approximate
08:37 76.5314 -68.7032 302° West  Level Estimated
08:38 76.5314 -68.7032 302° West  Level Estimated
08:39 76.5314 -68.7032 302° West  Level Estimated
08:40 76.5314 -68.7032 302° West  Level Estimated
08:41 76.5314 -68.7032 302° West  Level Estimated
08:42 76.5314 -68.7032 302° West  Level Estimated
08:43 76.5314 -68.7032 302° West  Level Estimated
08:44 76.5314 -68.7032 302° West  Level Estimated
08:45 76.5314 -68.7032 302° West  Level Estimated
08:46 76.5314 -68.7032 302° West  Level Estimated
08:47 76.5314 -68.7032 302° West  Level Estimated
08:48 76.5314 -68.7032 302° West  Level Estimated
08:49 76.5314 -68.7032 302° West  Level Estimated
08:50 76.5314 -68.7032 302° West  Level Estimated
08:51 76.5314 -68.7032 302° West  Level Estimated
08:52 76.5314 -68.7032 302° West  Level Estimated
08:53 76.5314 -68.7032 302° West  Level Estimated
08:54 76.5314 -68.7032 302° West  Level Estimated
08:55 76.5314 -68.7032 302° West  Level Estimated
08:56 76.5314 -68.7032 302° West  Level Estimated
08:57 76.5314 -68.7032 302° West  Level Estimated
08:58 76.5314 -68.7032 302° West  Level Estimated